Time;durP1;ratioP1;P1;durP2;ratioP2;P2;SDS_P1;SDS_P2;PMS_P1;PMS_P2;Temp;Humidity;BMP_temperature;BMP_pressure;BME280_temperature;BME280_humidity;BME280_pressure;Samples;Min_cycle;Max_cycle;Signal;HPM_P1;HPM_P2
2021/03/29 00:00:40;;;;;;;;;7.00;6.00;;;;;;;;5083457;28;11486;-80
2021/03/29 00:03:07;;;;;;;;;6.50;6.25;;;;;;;;5082306;28;11578;-80
2021/03/29 00:05:35;;;;;;;;;6.25;5.25;;;;;;;;5083588;28;11547;-81
2021/03/29 00:08:06;;;;;;;;;5.75;5.75;;;;;;;;5083849;28;11429;-80
2021/03/29 00:10:34;;;;;;;;;5.00;5.00;;;;;;;;5084919;28;11514;-81
2021/03/29 00:13:03;;;;;;;;;8.25;6.25;;;;;;;;5083720;28;11581;-81
2021/03/29 00:15:32;;;;;;;;;5.25;5.00;;;;;;;;5084178;28;11425;-81
2021/03/29 00:18:00;;;;;;;;;7.00;5.00;;;;;;;;5083544;28;12286;-79
2021/03/29 00:20:29;;;;;;;;;10.50;10.50;;;;;;;;5084444;28;11461;-80
2021/03/29 00:22:56;;;;;;;;;7.50;7.50;;;;;;;;5085151;28;11453;-79
2021/03/29 00:25:25;;;;;;;;;9.50;6.75;;;;;;;;5082592;28;11401;-80
2021/03/29 00:27:52;;;;;;;;;9.50;9.50;;;;;;;;5084454;28;11543;-79
2021/03/29 00:30:23;;;;;;;;;9.25;6.00;;;;;;;;5081683;28;11482;-79
2021/03/29 00:32:51;;;;;;;;;7.00;7.00;;;;;;;;5083807;28;11462;-80
2021/03/29 00:35:20;;;;;;;;;13.00;10.00;;;;;;;;5081409;28;11439;-80
2021/03/29 00:37:49;;;;;;;;;10.75;7.50;;;;;;;;5082759;28;12383;-80
2021/03/29 00:40:19;;;;;;;;;9.00;9.00;;;;;;;;5076794;28;11534;-80
2021/03/29 00:42:48;;;;;;;;;11.75;10.25;;;;;;;;5074045;28;11486;-80
2021/03/29 00:45:18;;;;;;;;;15.00;11.75;;;;;;;;5082769;28;11523;-80
2021/03/29 00:47:49;;;;;;;;;9.00;9.00;;;;;;;;5082292;28;11515;-81
2021/03/29 00:50:19;;;;;;;;;9.25;9.25;;;;;;;;5083719;28;11521;-78
2021/03/29 00:52:46;;;;;;;;;13.25;10.50;;;;;;;;5082015;28;11497;-78
2021/03/29 00:55:13;;;;;;;;;17.00;12.50;;;;;;;;5081695;28;11773;-78
2021/03/29 00:57:43;;;;;;;;;9.50;9.50;;;;;;;;5083050;28;11643;-79
2021/03/29 01:00:18;;;;;;;;;6.75;6.75;;;;;;;;5083005;28;11531;-79
2021/03/29 01:02:46;;;;;;;;;13.75;11.25;;;;;;;;5082682;28;11458;-80
2021/03/29 01:05:16;;;;;;;;;13.50;11.75;;;;;;;;5082070;28;11542;-80
2021/03/29 01:07:44;;;;;;;;;14.00;13.75;;;;;;;;5082346;28;11547;-79
2021/03/29 01:10:13;;;;;;;;;12.00;12.00;;;;;;;;5081662;28;12218;-79
2021/03/29 01:12:41;;;;;;;;;14.00;12.25;;;;;;;;5083297;28;11552;-79
2021/03/29 01:15:10;;;;;;;;;13.25;9.00;;;;;;;;5082435;28;11596;-82
2021/03/29 01:17:39;;;;;;;;;9.50;9.50;;;;;;;;5082862;28;11527;-81
2021/03/29 01:20:18;;;;;;;;;10.50;10.00;;;;;;;;5087722;28;11501;-82
2021/03/29 01:22:47;;;;;;;;;15.25;13.50;;;;;;;;5082511;28;11531;-81
2021/03/29 01:25:18;;;;;;;;;10.75;10.75;;;;;;;;5083136;28;11558;-81
2021/03/29 01:27:49;;;;;;;;;9.50;9.50;;;;;;;;5081834;28;12368;-81
2021/03/29 01:30:18;;;;;;;;;8.25;8.25;;;;;;;;5082996;28;11601;-81
2021/03/29 01:32:46;;;;;;;;;11.75;11.75;;;;;;;;5081912;28;11497;-80
2021/03/29 01:35:17;;;;;;;;;7.75;7.75;;;;;;;;5082215;28;11517;-80
2021/03/29 01:37:45;;;;;;;;;9.25;9.25;;;;;;;;5082885;28;11503;-81
2021/03/29 01:40:17;;;;;;;;;6.00;6.00;;;;;;;;5080606;28;11535;-80
2021/03/29 01:42:46;;;;;;;;;10.00;10.00;;;;;;;;5080342;28;11615;-81
2021/03/29 01:45:14;;;;;;;;;12.50;11.75;;;;;;;;5080523;28;11506;-83
2021/03/29 01:47:43;;;;;;;;;10.50;10.50;;;;;;;;5082707;28;12274;-81
2021/03/29 01:50:12;;;;;;;;;8.50;8.50;;;;;;;;5082400;28;11650;-80
2021/03/29 01:52:39;;;;;;;;;13.75;10.75;;;;;;;;5082576;28;11533;-79
2021/03/29 01:55:08;;;;;;;;;10.25;7.75;;;;;;;;5081849;28;11589;-81
2021/03/29 01:57:35;;;;;;;;;13.75;9.25;;;;;;;;5082539;28;11649;-80
2021/03/29 02:00:09;;;;;;;;;13.50;13.50;;;;;;;;5081717;28;11519;-80
2021/03/29 02:02:37;;;;;;;;;12.50;10.00;;;;;;;;5081821;28;11479;-80
2021/03/29 02:05:08;;;;;;;;;9.00;9.00;;;;;;;;5082985;28;11508;-80
2021/03/29 02:07:36;;;;;;;;;11.00;8.00;;;;;;;;5078239;28;11490;-81
2021/03/29 02:10:10;;;;;;;;;11.00;9.50;;;;;;;;5082331;28;11497;-81
2021/03/29 02:12:38;;;;;;;;;13.75;10.00;;;;;;;;5082443;28;11488;-81
2021/03/29 02:15:09;;;;;;;;;9.75;9.75;;;;;;;;5079632;28;11435;-80
2021/03/29 02:17:37;;;;;;;;;7.00;7.00;;;;;;;;5083171;28;11474;-80
2021/03/29 02:20:10;;;;;;;;;9.50;6.75;;;;;;;;5082632;28;11583;-80
2021/03/29 02:22:37;;;;;;;;;14.25;11.00;;;;;;;;5081277;28;11499;-80
2021/03/29 02:25:07;;;;;;;;;7.25;7.25;;;;;;;;5079621;28;11651;-80
2021/03/29 02:27:35;;;;;;;;;15.50;11.00;;;;;;;;5083021;28;11541;-81
2021/03/29 02:30:09;;;;;;;;;11.75;11.75;;;;;;;;5080521;28;11501;-81
2021/03/29 02:32:39;;;;;;;;;11.25;11.00;;;;;;;;5083702;28;11461;-79
2021/03/29 02:35:07;;;;;;;;;10.00;7.25;;;;;;;;5080676;28;12265;-80
2021/03/29 02:37:34;;;;;;;;;11.00;11.00;;;;;;;;5080700;28;11477;-81
2021/03/29 02:40:01;;;;;;;;;12.50;9.50;;;;;;;;5083150;28;11530;-80
2021/03/29 02:42:29;;;;;;;;;10.50;10.50;;;;;;;;5080081;28;11472;-81
2021/03/29 02:44:56;;;;;;;;;9.75;9.75;;;;;;;;5081079;28;11549;-81
2021/03/29 02:47:24;;;;;;;;;9.50;9.00;;;;;;;;5081269;28;11562;-79
2021/03/29 02:49:51;;;;;;;;;14.25;11.25;;;;;;;;5082589;28;11486;-81
2021/03/29 02:52:18;;;;;;;;;11.25;10.00;;;;;;;;5081801;28;11442;-81
2021/03/29 02:54:47;;;;;;;;;11.00;10.00;;;;;;;;5081430;28;11469;-81
2021/03/29 02:57:15;;;;;;;;;9.75;9.75;;;;;;;;5078000;28;11522;-79
2021/03/29 02:59:43;;;;;;;;;8.00;8.00;;;;;;;;5079054;28;11532;-82
2021/03/29 03:02:10;;;;;;;;;9.50;9.50;;;;;;;;5081550;28;11467;-82
2021/03/29 03:04:38;;;;;;;;;9.25;9.00;;;;;;;;5087892;28;11725;-82
2021/03/29 03:07:05;;;;;;;;;10.00;10.00;;;;;;;;5086873;28;11550;-80
2021/03/29 03:09:33;;;;;;;;;12.50;10.00;;;;;;;;5084267;28;11462;-81
2021/03/29 03:12:00;;;;;;;;;9.50;9.50;;;;;;;;5086125;28;11661;-81
2021/03/29 03:14:28;;;;;;;;;8.25;8.25;;;;;;;;5084363;28;11496;-81
2021/03/29 03:16:55;;;;;;;;;13.75;10.50;;;;;;;;5084983;28;11473;-81
2021/03/29 03:19:22;;;;;;;;;9.25;9.25;;;;;;;;5085083;28;11661;-79
2021/03/29 03:21:52;;;;;;;;;14.75;14.75;;;;;;;;5084121;28;11575;-79
2021/03/29 03:24:20;;;;;;;;;15.00;11.00;;;;;;;;5085221;28;11603;-82
2021/03/29 03:26:47;;;;;;;;;11.25;11.25;;;;;;;;5084267;28;11612;-81
2021/03/29 03:29:13;;;;;;;;;18.00;13.25;;;;;;;;5085295;28;11542;-81
2021/03/29 03:31:40;;;;;;;;;14.25;14.00;;;;;;;;5083303;28;11478;-81
2021/03/29 03:34:07;;;;;;;;;19.50;15.00;;;;;;;;5084683;28;12392;-84
2021/03/29 03:36:35;;;;;;;;;11.75;11.75;;;;;;;;5085040;28;11500;-81
2021/03/29 03:39:04;;;;;;;;;18.25;12.75;;;;;;;;5085087;28;11650;-80
2021/03/29 03:41:33;;;;;;;;;12.25;11.75;;;;;;;;5084151;28;11520;-81
2021/03/29 03:44:01;;;;;;;;;11.00;11.00;;;;;;;;5081564;28;11499;-80
2021/03/29 03:46:30;;;;;;;;;9.25;9.00;;;;;;;;5085067;28;11559;-81
2021/03/29 03:49:01;;;;;;;;;13.25;11.50;;;;;;;;5083601;28;11471;-80
2021/03/29 03:51:29;;;;;;;;;5.50;5.50;;;;;;;;5085216;28;11543;-81
2021/03/29 03:53:56;;;;;;;;;8.50;8.50;;;;;;;;5085200;28;12317;-81
2021/03/29 03:56:24;;;;;;;;;9.50;9.50;;;;;;;;5076998;28;11475;-81
2021/03/29 03:58:53;;;;;;;;;15.25;11.00;;;;;;;;5085590;28;11661;-78
2021/03/29 04:01:20;;;;;;;;;13.50;7.50;;;;;;;;5083818;28;11576;-79
2021/03/29 04:03:47;;;;;;;;;12.00;9.50;;;;;;;;5085383;28;11486;-79
2021/03/29 04:06:14;;;;;;;;;11.75;9.25;;;;;;;;5083451;28;11515;-80
2021/03/29 04:08:41;;;;;;;;;18.75;12.50;;;;;;;;5083127;28;11521;-80
2021/03/29 04:11:08;;;;;;;;;6.50;6.50;;;;;;;;5081836;28;11544;-82
2021/03/29 04:13:36;;;;;;;;;11.25;11.25;;;;;;;;5084484;28;12273;-85
2021/03/29 04:16:05;;;;;;;;;12.25;12.25;;;;;;;;5090252;28;12338;-81
2021/03/29 04:18:33;;;;;;;;;10.50;9.75;;;;;;;;5081092;28;11591;-81
2021/03/29 04:21:00;;;;;;;;;12.50;10.50;;;;;;;;5085915;28;11546;-81
2021/03/29 04:23:30;;;;;;;;;12.25;9.00;;;;;;;;5083656;28;11533;-83
2021/03/29 04:25:57;;;;;;;;;9.75;9.75;;;;;;;;5085739;28;11513;-82
2021/03/29 04:28:25;;;;;;;;;16.00;12.00;;;;;;;;5084930;28;11628;-82
2021/03/29 04:30:53;;;;;;;;;11.00;8.00;;;;;;;;5083335;28;11622;-83
2021/03/29 04:33:22;;;;;;;;;9.00;9.00;;;;;;;;5083429;28;11509;-81
2021/03/29 04:35:49;;;;;;;;;12.75;11.00;;;;;;;;5083190;28;11506;-80
2021/03/29 04:38:16;;;;;;;;;13.25;9.00;;;;;;;;5084990;28;11561;-81
2021/03/29 04:40:43;;;;;;;;;10.75;7.50;;;;;;;;5083619;28;11507;-81
2021/03/29 04:43:10;;;;;;;;;12.00;12.00;;;;;;;;5084373;28;11593;-81
2021/03/29 04:45:37;;;;;;;;;9.50;9.50;;;;;;;;5083294;28;11518;-81
2021/03/29 04:48:06;;;;;;;;;19.50;19.50;;;;;;;;5084573;28;11571;-81
2021/03/29 04:50:33;;;;;;;;;9.50;9.50;;;;;;;;5080310;28;11565;-81
2021/03/29 04:53:00;;;;;;;;;12.00;12.00;;;;;;;;5083665;28;12224;-81
2021/03/29 04:55:27;;;;;;;;;11.25;11.25;;;;;;;;5087877;28;11571;-80
2021/03/29 04:57:54;;;;;;;;;13.25;11.00;;;;;;;;5081589;28;11737;-80
2021/03/29 05:00:22;;;;;;;;;16.25;12.75;;;;;;;;5084840;28;11710;-81
2021/03/29 05:02:49;;;;;;;;;13.75;13.75;;;;;;;;5082475;28;11567;-82
2021/03/29 05:05:17;;;;;;;;;14.25;12.75;;;;;;;;5082422;28;11532;-79
2021/03/29 05:07:46;;;;;;;;;12.50;11.00;;;;;;;;5085810;28;11564;-80
2021/03/29 05:10:14;;;;;;;;;12.00;12.00;;;;;;;;5080234;28;11597;-81
2021/03/29 05:12:41;;;;;;;;;11.00;10.75;;;;;;;;5083779;28;11537;-81
2021/03/29 05:15:09;;;;;;;;;13.75;11.25;;;;;;;;5081524;28;11534;-78
2021/03/29 05:17:36;;;;;;;;;9.75;9.75;;;;;;;;5072426;28;11517;-80
2021/03/29 05:20:05;;;;;;;;;8.00;8.00;;;;;;;;5078187;28;11543;-82
2021/03/29 05:22:33;;;;;;;;;15.50;12.00;;;;;;;;5080092;28;12319;-80
2021/03/29 05:25:00;;;;;;;;;9.25;9.25;;;;;;;;5068648;28;11533;-81
2021/03/29 05:27:27;;;;;;;;;9.75;9.75;;;;;;;;5074263;28;11524;-81
2021/03/29 05:29:54;;;;;;;;;12.50;12.50;;;;;;;;5075615;28;12432;-79
2021/03/29 05:32:23;;;;;;;;;15.25;14.00;;;;;;;;5065015;28;11464;-79
2021/03/29 05:34:52;;;;;;;;;12.00;12.00;;;;;;;;5065204;28;11535;-80
2021/03/29 05:37:23;;;;;;;;;10.75;10.75;;;;;;;;5066913;28;11538;-79
2021/03/29 05:39:54;;;;;;;;;13.50;12.50;;;;;;;;5070060;28;11520;-79
2021/03/29 05:42:22;;;;;;;;;16.50;14.50;;;;;;;;5074227;28;11620;-79
2021/03/29 05:44:52;;;;;;;;;15.00;11.00;;;;;;;;5075994;28;11554;-72
2021/03/29 05:47:20;;;;;;;;;11.25;11.25;;;;;;;;5072475;28;11645;-72
2021/03/29 05:49:47;;;;;;;;;14.50;14.50;;;;;;;;5066555;28;11524;-69
2021/03/29 05:52:14;;;;;;;;;14.50;12.75;;;;;;;;5070366;28;11544;-68
2021/03/29 05:54:41;;;;;;;;;11.25;10.00;;;;;;;;5080146;28;11530;-69
2021/03/29 05:57:11;;;;;;;;;12.25;12.25;;;;;;;;5081218;28;11510;-69
2021/03/29 05:59:41;;;;;;;;;14.00;14.00;;;;;;;;5079621;28;11537;-70
2021/03/29 06:02:08;;;;;;;;;11.25;11.25;;;;;;;;5082764;28;11533;-69
2021/03/29 06:04:45;;;;;;;;;15.50;11.00;;;;;;;;5081956;28;11598;-70
2021/03/29 06:07:13;;;;;;;;;14.75;12.25;;;;;;;;5081208;28;11712;-70
2021/03/29 06:09:41;;;;;;;;;15.25;13.75;;;;;;;;5080249;28;11510;-70
2021/03/29 06:12:09;;;;;;;;;11.50;11.50;;;;;;;;5079610;28;12187;-70
2021/03/29 06:14:37;;;;;;;;;17.25;16.25;;;;;;;;5079965;28;11636;-70
2021/03/29 06:17:05;;;;;;;;;17.50;13.00;;;;;;;;5081640;28;11547;-69
2021/03/29 06:19:49;;;;;;;;;17.50;14.50;;;;;;;;5083291;28;12386;-68
2021/03/29 06:22:18;;;;;;;;;18.00;14.00;;;;;;;;5083352;28;11528;-68
2021/03/29 06:24:54;;;;;;;;;17.75;15.00;;;;;;;;5077549;28;11688;-69
2021/03/29 06:27:23;;;;;;;;;15.75;14.50;;;;;;;;5076926;28;11558;-69
2021/03/29 06:29:50;;;;;;;;;23.00;21.25;;;;;;;;5080630;28;11720;-68
2021/03/29 06:32:18;;;;;;;;;14.00;14.00;;;;;;;;5080576;28;11504;-69
2021/03/29 06:34:45;;;;;;;;;20.25;19.50;;;;;;;;5083931;28;11541;-66
2021/03/29 06:37:12;;;;;;;;;33.50;32.25;;;;;;;;5084457;28;11664;-69
2021/03/29 06:39:39;;;;;;;;;20.25;19.25;;;;;;;;5085541;28;11669;-66
2021/03/29 06:42:07;;;;;;;;;19.00;16.00;;;;;;;;5085386;28;11535;-68
2021/03/29 06:44:37;;;;;;;;;22.00;19.25;;;;;;;;5086508;28;11550;-68
2021/03/29 06:47:09;;;;;;;;;18.00;18.00;;;;;;;;5086510;28;11540;-68
2021/03/29 06:49:45;;;;;;;;;16.25;14.00;;;;;;;;5087189;28;11556;-67
2021/03/29 06:52:23;;;;;;;;;16.00;16.00;;;;;;;;5086349;28;11505;-68
2021/03/29 06:54:50;;;;;;;;;13.75;12.75;;;;;;;;5082306;28;11572;-68
2021/03/29 06:57:28;;;;;;;;;8.00;8.00;;;;;;;;5086706;28;11510;-68
2021/03/29 06:59:56;;;;;;;;;9.00;9.00;;;;;;;;5081933;28;11477;-69
2021/03/29 07:02:45;;;;;;;;;9.25;9.00;;;;;;;;5086271;27;11487;-68
2021/03/29 07:05:14;;;;;;;;;11.75;10.50;;;;;;;;5076868;28;11496;-67
2021/03/29 07:07:41;;;;;;;;;13.25;10.75;;;;;;;;5084951;28;11538;-67
2021/03/29 07:10:10;;;;;;;;;14.25;11.00;;;;;;;;5086145;28;11526;-67
2021/03/29 07:12:39;;;;;;;;;10.00;9.75;;;;;;;;5084945;28;11516;-67
2021/03/29 07:15:09;;;;;;;;;9.50;9.50;;;;;;;;5085228;28;12358;-68
2021/03/29 07:17:38;;;;;;;;;15.00;10.00;;;;;;;;5085666;28;12299;-68
2021/03/29 07:20:07;;;;;;;;;10.00;10.00;;;;;;;;5082949;28;11544;-71
2021/03/29 07:22:36;;;;;;;;;17.00;13.25;;;;;;;;5082607;28;11476;-68
2021/03/29 07:25:05;;;;;;;;;9.00;6.25;;;;;;;;5083594;28;11565;-69
2021/03/29 07:27:35;;;;;;;;;10.25;10.25;;;;;;;;5086131;28;11458;-69
2021/03/29 07:30:02;;;;;;;;;10.75;10.00;;;;;;;;5081010;28;12263;-70
2021/03/29 07:32:31;;;;;;;;;12.50;10.25;;;;;;;;5065582;28;11453;-69
2021/03/29 07:34:58;;;;;;;;;10.00;10.00;;;;;;;;5063513;28;11467;-69
2021/03/29 07:37:35;;;;;;;;;10.00;10.00;;;;;;;;5065086;28;11649;-70
2021/03/29 07:40:06;;;;;;;;;10.00;10.00;;;;;;;;5063846;28;11394;-69
2021/03/29 07:42:37;;;;;;;;;10.75;9.00;;;;;;;;5066155;28;11141;-70
2021/03/29 07:45:10;;;;;;;;;13.75;9.50;;;;;;;;5062203;28;11169;-70
2021/03/29 07:47:59;;;;;;;;;11.50;9.25;;;;;;;;5063179;28;11255;-70
2021/03/29 07:50:47;;;;;;;;;10.25;10.00;;;;;;;;5054354;28;11143;-70
2021/03/29 07:53:18;;;;;;;;;12.25;11.75;;;;;;;;5058219;28;11165;-70
2021/03/29 07:55:47;;;;;;;;;15.00;11.00;;;;;;;;5063989;28;11031;-70
2021/03/29 07:58:15;;;;;;;;;13.75;12.50;;;;;;;;5063534;28;10888;-70
2021/03/29 08:00:46;;;;;;;;;10.75;10.75;;;;;;;;5068785;28;10942;-70
2021/03/29 08:03:36;;;;;;;;;9.25;9.25;;;;;;;;5080461;28;10695;-70
2021/03/29 08:06:03;;;;;;;;;8.25;8.25;;;;;;;;5084306;28;10730;-70
2021/03/29 08:08:41;;;;;;;;;9.00;8.00;;;;;;;;5082851;28;10632;-69
2021/03/29 08:11:12;;;;;;;;;10.50;10.50;;;;;;;;5081397;28;10760;-70
2021/03/29 08:13:43;;;;;;;;;11.00;11.00;;;;;;;;5083124;28;10837;-71
2021/03/29 08:16:11;;;;;;;;;12.00;12.00;;;;;;;;5083114;28;10558;-71
2021/03/29 08:19:11;;;;;;;;;9.00;9.00;;;;;;;;5083082;28;10639;-71
2021/03/29 08:21:49;;;;;;;;;8.75;7.50;;;;;;;;5080505;28;11479;-70
2021/03/29 08:24:18;;;;;;;;;11.75;11.75;;;;;;;;5081529;28;10385;-70
2021/03/29 08:26:46;;;;;;;;;10.25;10.25;;;;;;;;5082873;28;10473;-71
2021/03/29 08:29:15;;;;;;;;;13.75;12.00;;;;;;;;5076298;28;10094;-70
2021/03/29 08:32:16;;;;;;;;;10.50;10.50;;;;;;;;5080647;28;10100;-70
2021/03/29 08:34:55;;;;;;;;;11.50;11.50;;;;;;;;5000365;28;9961;-70
2021/03/29 08:37:28;;;;;;;;;12.00;10.25;;;;;;;;5001884;28;10827;-71
2021/03/29 08:39:57;;;;;;;;;9.50;9.50;;;;;;;;5046398;28;9947;-70
2021/03/29 08:42:27;;;;;;;;;9.75;9.75;;;;;;;;5082903;28;9887;-69
2021/03/29 08:44:54;;;;;;;;;10.00;10.00;;;;;;;;5083107;28;9740;-69
2021/03/29 08:47:23;;;;;;;;;10.25;10.25;;;;;;;;5082217;28;9620;-69
2021/03/29 08:49:54;;;;;;;;;10.00;10.00;;;;;;;;5082179;28;9663;-69
2021/03/29 08:52:22;;;;;;;;;13.25;12.00;;;;;;;;5082379;28;9383;-69
2021/03/29 08:54:57;;;;;;;;;14.67;12.33;;;;;;;;5082384;28;9472;-69
2021/03/29 08:57:28;;;;;;;;;9.67;9.67;;;;;;;;5080432;28;10250;-70
2021/03/29 08:59:57;;;;;;;;;12.67;11.00;;;;;;;;5083291;28;9536;-69
2021/03/29 09:02:25;;;;;;;;;10.00;9.00;;;;;;;;5082185;27;9262;-70
2021/03/29 09:04:57;;;;;;;;;10.00;10.00;;;;;;;;5079824;28;9256;-69
2021/03/29 09:07:32;;;;;;;;;9.00;9.00;;;;;;;;5083119;28;9858;-69
2021/03/29 09:10:00;;;;;;;;;14.33;11.00;;;;;;;;5084840;28;9804;-69
2021/03/29 09:12:31;;;;;;;;;9.75;8.50;;;;;;;;5079147;28;9032;-69
2021/03/29 09:15:00;;;;;;;;;8.25;8.25;;;;;;;;5081580;28;8858;-69
2021/03/29 09:17:31;;;;;;;;;11.25;10.00;;;;;;;;5084081;28;8861;-70
2021/03/29 09:19:59;;;;;;;;;10.00;10.00;;;;;;;;5085505;28;8912;-69
2021/03/29 09:22:31;;;;;;;;;7.00;7.00;;;;;;;;5083381;28;8984;-69
2021/03/29 09:24:59;;;;;;;;;10.50;8.50;;;;;;;;5083474;28;8861;-69
2021/03/29 09:27:33;;;;;;;;;9.75;8.75;;;;;;;;5082927;28;8861;-70
2021/03/29 09:30:05;;;;;;;;;10.00;10.00;;;;;;;;5083494;28;8853;-70
2021/03/29 09:32:33;;;;;;;;;9.25;9.25;;;;;;;;5071513;28;8829;-70
2021/03/29 09:35:02;;;;;;;;;10.25;10.25;;;;;;;;5067542;28;8895;-69
2021/03/29 09:37:31;;;;;;;;;8.00;8.00;;;;;;;;5065740;28;8856;-69
2021/03/29 09:39:59;;;;;;;;;11.50;10.25;;;;;;;;5062242;28;8864;-70
2021/03/29 09:42:41;;;;;;;;;12.25;11.50;;;;;;;;5069926;28;8834;-70
2021/03/29 09:45:10;;;;;;;;;10.25;10.25;;;;;;;;5065136;28;9687;-70
2021/03/29 09:47:37;;;;;;;;;13.50;9.75;;;;;;;;5072635;28;8960;-70
2021/03/29 09:50:07;;;;;;;;;12.00;8.00;;;;;;;;5064396;28;8856;-69
2021/03/29 09:52:36;;;;;;;;;7.00;7.00;;;;;;;;5063516;28;8844;-69
2021/03/29 09:55:03;;;;;;;;;11.00;11.00;;;;;;;;5065082;28;8844;-69
2021/03/29 09:57:38;;;;;;;;;10.50;7.00;;;;;;;;5061193;28;9670;-69
2021/03/29 10:00:27;;;;;;;;;9.75;9.75;;;;;;;;5063743;28;8872;-70
2021/03/29 10:03:00;;;;;;;;;9.50;9.25;;;;;;;;5046328;28;8885;-70
2021/03/29 10:05:35;;;;;;;;;7.75;7.75;;;;;;;;5061718;28;8904;-70
2021/03/29 10:08:02;;;;;;;;;7.50;7.50;;;;;;;;5062905;28;8843;-70
2021/03/29 10:10:31;;;;;;;;;10.75;8.25;;;;;;;;5065137;28;8915;-69
2021/03/29 10:13:11;;;;;;;;;8.75;8.75;;;;;;;;5067715;28;8844;-71
2021/03/29 10:15:40;;;;;;;;;8.50;8.50;;;;;;;;5064989;28;8860;-70
2021/03/29 10:18:12;;;;;;;;;5.00;5.00;;;;;;;;5067164;28;8876;-70
2021/03/29 10:20:42;;;;;;;;;6.75;6.75;;;;;;;;5064991;28;8895;-71
2021/03/29 10:23:23;;;;;;;;;6.00;6.00;;;;;;;;5065464;28;8933;-71
2021/03/29 10:26:29;;;;;;;;;5.00;5.00;;;;;;;;5069126;28;8922;-70
2021/03/29 10:28:59;;;;;;;;;4.25;4.25;;;;;;;;5054690;28;8870;-71
2021/03/29 10:31:26;;;;;;;;;6.00;6.00;;;;;;;;5057386;28;9593;-70
2021/03/29 10:33:53;;;;;;;;;6.50;3.50;;;;;;;;5061136;28;8852;-70
2021/03/29 10:36:22;;;;;;;;;4.00;2.00;;;;;;;;5060147;28;8851;-70
2021/03/29 10:38:51;;;;;;;;;4.00;4.00;;;;;;;;5061435;28;8878;-72
2021/03/29 10:41:19;;;;;;;;;4.75;4.75;;;;;;;;5056575;28;8852;-71
2021/03/29 10:43:47;;;;;;;;;3.25;3.25;;;;;;;;5057113;28;8870;-70
2021/03/29 10:46:15;;;;;;;;;3.00;3.00;;;;;;;;5052728;28;9600;-70
2021/03/29 10:48:42;;;;;;;;;3.25;3.25;;;;;;;;5056878;28;8880;-70
2021/03/29 10:51:10;;;;;;;;;4.75;4.25;;;;;;;;5055506;28;8871;-69
2021/03/29 10:53:38;;;;;;;;;3.75;3.75;;;;;;;;5063401;28;8860;-70
2021/03/29 10:56:05;;;;;;;;;5.00;3.25;;;;;;;;5056322;28;8856;-70
2021/03/29 10:58:33;;;;;;;;;2.75;2.75;;;;;;;;5052519;28;8879;-70
2021/03/29 11:01:00;;;;;;;;;5.00;5.00;;;;;;;;5055806;28;8984;-70
2021/03/29 11:03:26;;;;;;;;;5.20;4.00;;;;;;;;5063745;28;8878;-71
2021/03/29 11:05:53;;;;;;;;;4.20;4.20;;;;;;;;5065196;28;8880;-71
2021/03/29 11:08:20;;;;;;;;;4.00;4.00;;;;;;;;5065592;28;8853;-71
2021/03/29 11:10:48;;;;;;;;;4.00;4.00;;;;;;;;5063099;28;8856;-73
2021/03/29 11:13:15;;;;;;;;;2.00;2.00;;;;;;;;5065114;28;8953;-71
2021/03/29 11:15:42;;;;;;;;;6.60;3.80;;;;;;;;5064313;28;8850;-71
2021/03/29 11:18:11;;;;;;;;;3.80;3.80;;;;;;;;5065975;28;8962;-70
2021/03/29 11:20:38;;;;;;;;;4.00;4.00;;;;;;;;5062048;28;8875;-71
2021/03/29 11:23:05;;;;;;;;;5.80;5.00;;;;;;;;5061474;28;8874;-71
2021/03/29 11:25:32;;;;;;;;;5.20;3.60;;;;;;;;5049100;28;8855;-71
2021/03/29 11:28:00;;;;;;;;;4.20;3.60;;;;;;;;5051333;28;8897;-71
2021/03/29 11:30:27;;;;;;;;;3.00;3.00;;;;;;;;5054659;28;8857;-70
2021/03/29 11:32:54;;;;;;;;;3.80;3.80;;;;;;;;5051496;28;8871;-71
2021/03/29 11:35:21;;;;;;;;;6.40;6.00;;;;;;;;5055237;28;8990;-71
2021/03/29 11:37:47;;;;;;;;;3.60;3.60;;;;;;;;5047812;28;8869;-70
2021/03/29 11:40:14;;;;;;;;;4.40;4.40;;;;;;;;5059893;28;8853;-70
2021/03/29 11:42:42;;;;;;;;;4.60;4.60;;;;;;;;5049884;28;8875;-73
2021/03/29 11:45:11;;;;;;;;;3.00;3.00;;;;;;;;5059910;28;9667;-69
2021/03/29 11:47:40;;;;;;;;;6.00;4.20;;;;;;;;5065833;28;8856;-72
2021/03/29 11:50:11;;;;;;;;;3.20;3.20;;;;;;;;5063697;28;8887;-72
2021/03/29 11:52:38;;;;;;;;;6.20;4.80;;;;;;;;5066710;28;8856;-72
2021/03/29 11:55:07;;;;;;;;;4.80;4.80;;;;;;;;5064368;28;8868;-72
2021/03/29 11:57:34;;;;;;;;;4.00;4.00;;;;;;;;5052428;28;8904;-71
2021/03/29 12:00:03;;;;;;;;;5.40;5.40;;;;;;;;5049245;28;9006;-73
2021/03/29 12:02:37;;;;;;;;;6.00;4.40;;;;;;;;5075316;28;8843;-73
2021/03/29 12:05:07;;;;;;;;;5.20;5.20;;;;;;;;5083591;28;8919;-73
2021/03/29 12:07:43;;;;;;;;;3.60;3.60;;;;;;;;5073085;28;8872;-71
2021/03/29 12:12:57;;;;;;;;;3.00;3.00;;;;;;;;5082919;28;8956;-71
2021/03/29 12:15:25;;;;;;;;;5.00;5.00;;;;;;;;5081787;28;8978;-71
2021/03/29 12:17:53;;;;;;;;;6.00;4.00;;;;;;;;5082530;28;8853;-70
2021/03/29 12:20:20;;;;;;;;;5.00;4.00;;;;;;;;5083665;28;8856;-71
2021/03/29 12:22:48;;;;;;;;;6.60;5.00;;;;;;;;5085262;28;8942;-71
2021/03/29 12:25:17;;;;;;;;;6.60;6.60;;;;;;;;5083005;28;8857;-71
2021/03/29 12:27:44;;;;;;;;;6.00;6.00;;;;;;;;5085232;28;8850;-71
2021/03/29 12:30:16;;;;;;;;;4.60;4.60;;;;;;;;5083007;28;8870;-72
2021/03/29 12:32:43;;;;;;;;;6.00;6.00;;;;;;;;5074617;28;8822;-71
2021/03/29 12:35:17;;;;;;;;;5.60;2.80;;;;;;;;5082431;28;8842;-72
2021/03/29 12:37:46;;;;;;;;;4.00;4.00;;;;;;;;5084210;28;8873;-73
2021/03/29 12:40:17;;;;;;;;;4.00;4.00;;;;;;;;5085105;28;8930;-73
2021/03/29 12:42:51;;;;;;;;;5.20;5.20;;;;;;;;5083495;28;8938;-71
2021/03/29 12:45:23;;;;;;;;;4.60;4.60;;;;;;;;5079846;28;8878;-72
2021/03/29 12:47:52;;;;;;;;;6.80;5.00;;;;;;;;5084164;28;8856;-72
2021/03/29 12:50:22;;;;;;;;;6.40;6.40;;;;;;;;5080256;28;9644;-73
2021/03/29 12:52:49;;;;;;;;;5.00;5.00;;;;;;;;5084939;28;8857;-73
2021/03/29 12:55:18;;;;;;;;;5.20;5.20;;;;;;;;5083439;28;8893;-71
2021/03/29 12:57:46;;;;;;;;;5.20;5.00;;;;;;;;5084405;28;8865;-74
2021/03/29 13:00:15;;;;;;;;;5.20;5.20;;;;;;;;5081129;28;8870;-74
2021/03/29 13:02:44;;;;;;;;;5.60;5.00;;;;;;;;5083566;28;8954;-73
2021/03/29 13:05:15;;;;;;;;;5.20;5.20;;;;;;;;5082551;28;8881;-72
2021/03/29 13:07:48;;;;;;;;;7.00;7.00;;;;;;;;5080519;28;8864;-73
2021/03/29 13:10:44;;;;;;;;;8.00;7.00;;;;;;;;5083223;28;8938;-70
2021/03/29 13:13:05;;;;;;;;;6.00;6.00;;;;;;;;5074639;28;8950;-71
2021/03/29 13:15:32;;;;;;;;;8.20;8.20;;;;;;;;5084662;28;8897;-71
2021/03/29 13:17:59;;;;;;;;;8.40;8.40;;;;;;;;5083171;28;8862;-71
2021/03/29 13:20:28;;;;;;;;;10.40;9.20;;;;;;;;5083777;28;8849;-72
2021/03/29 13:22:56;;;;;;;;;10.20;10.20;;;;;;;;5084210;28;8830;-72
2021/03/29 13:25:26;;;;;;;;;12.00;10.80;;;;;;;;5083203;28;8838;-71
2021/03/29 13:27:54;;;;;;;;;11.00;11.00;;;;;;;;5084239;28;8960;-72
2021/03/29 13:30:23;;;;;;;;;9.60;9.00;;;;;;;;5081607;28;8980;-72
2021/03/29 13:32:54;;;;;;;;;8.00;8.00;;;;;;;;5084627;28;8850;-73
2021/03/29 13:35:22;;;;;;;;;13.40;11.00;;;;;;;;5071208;28;9154;-71
2021/03/29 13:37:48;;;;;;;;;10.40;8.40;;;;;;;;5078975;28;8865;-73
2021/03/29 13:40:18;;;;;;;;;8.20;8.20;;;;;;;;5082756;28;8858;-71
2021/03/29 13:42:46;;;;;;;;;8.80;7.00;;;;;;;;5083157;28;8873;-72
2021/03/29 13:45:14;;;;;;;;;7.00;7.00;;;;;;;;5083295;28;8926;-71
2021/03/29 13:47:41;;;;;;;;;7.40;7.40;;;;;;;;5082421;28;8981;-72
2021/03/29 13:50:09;;;;;;;;;8.20;8.20;;;;;;;;5082016;28;8892;-72
2021/03/29 13:52:36;;;;;;;;;5.80;5.80;;;;;;;;5078307;28;8864;-73
2021/03/29 13:55:05;;;;;;;;;8.20;8.20;;;;;;;;5086494;28;8838;-72
2021/03/29 13:57:35;;;;;;;;;5.20;5.20;;;;;;;;5081768;28;8853;-72
2021/03/29 14:00:04;;;;;;;;;7.80;6.20;;;;;;;;5086405;28;8950;-72
2021/03/29 14:02:31;;;;;;;;;4.40;4.40;;;;;;;;5060374;28;8837;-73
2021/03/29 14:04:58;;;;;;;;;4.80;4.80;;;;;;;;5061898;28;8926;-73
2021/03/29 14:07:25;;;;;;;;;7.40;7.40;;;;;;;;5063772;28;8853;-74
2021/03/29 14:09:52;;;;;;;;;6.20;6.20;;;;;;;;5061424;28;8882;-73
2021/03/29 14:12:23;;;;;;;;;5.60;5.60;;;;;;;;5061951;28;9578;-73
2021/03/29 14:14:51;;;;;;;;;6.80;5.60;;;;;;;;5066213;28;8838;-73
2021/03/29 14:17:20;;;;;;;;;7.40;7.40;;;;;;;;5062868;28;8882;-74
2021/03/29 14:19:47;;;;;;;;;6.60;5.60;;;;;;;;5064796;28;8849;-72
2021/03/29 14:22:13;;;;;;;;;7.40;7.40;;;;;;;;5060424;28;8876;-72
2021/03/29 14:24:40;;;;;;;;;7.60;5.40;;;;;;;;5065092;28;8880;-74
2021/03/29 14:27:08;;;;;;;;;5.20;5.20;;;;;;;;5063005;28;8904;-72
2021/03/29 14:29:42;;;;;;;;;7.80;6.40;;;;;;;;5057367;28;8860;-74
2021/03/29 14:32:12;;;;;;;;;5.00;5.00;;;;;;;;5080704;28;8794;-71
2021/03/29 14:34:41;;;;;;;;;4.80;4.80;;;;;;;;5082652;28;8909;-73
2021/03/29 14:37:20;;;;;;;;;6.60;6.60;;;;;;;;5080986;28;8825;-72
2021/03/29 14:39:48;;;;;;;;;3.40;3.40;;;;;;;;5081939;28;8869;-71
2021/03/29 14:42:18;;;;;;;;;7.80;6.00;;;;;;;;5086539;28;8960;-71
2021/03/29 14:44:45;;;;;;;;;5.00;5.00;;;;;;;;5081536;28;8950;-72
2021/03/29 14:47:13;;;;;;;;;7.00;5.00;;;;;;;;5087044;28;8846;-72
2021/03/29 14:49:41;;;;;;;;;5.40;5.40;;;;;;;;5085977;28;8850;-71
2021/03/29 14:52:10;;;;;;;;;4.00;4.00;;;;;;;;5087571;28;8982;-70